Time;durP1;ratioP1;P1;durP2;ratioP2;P2;SDS_P1;SDS_P2;PMS_P1;PMS_P2;Temp;Humidity;BMP_temperature;BMP_pressure;BME280_temperature;BME280_humidity;BME280_pressure;Samples;Min_cycle;Max_cycle;Signal;HPM_P1;HPM_P2
2023/12/03 00:00:51;;;;;;;14.23;3.57;;;;;;;17.49;51.04;93685.56;4991564;28;20187;-43
2023/12/03 00:03:18;;;;;;;10.80;3.40;;;;;;;17.47;51.13;93670.25;4992291;28;20193;-48
2023/12/03 00:05:45;;;;;;;21.73;3.67;;;;;;;17.50;51.32;93687.13;4991871;28;20190;-43
2023/12/03 00:08:12;;;;;;;12.63;3.23;;;;;;;17.53;51.25;93690.13;4991592;28;20291;-45
2023/12/03 00:10:39;;;;;;;13.67;3.83;;;;;;;17.52;51.33;93693.69;4991795;28;20585;-44
2023/12/03 00:13:06;;;;;;;8.17;2.80;;;;;;;17.52;51.61;93714.34;4991569;28;20197;-44
2023/12/03 00:15:32;;;;;;;14.03;3.10;;;;;;;17.52;51.60;93706.59;4991937;28;20201;-44
2023/12/03 00:18:01;;;;;;;19.37;3.07;;;;;;;17.37;52.10;93716.41;4992074;28;20204;-42
2023/12/03 00:20:27;;;;;;;12.10;3.37;;;;;;;17.33;51.90;93694.56;4991011;28;20231;-43
2023/12/03 00:22:54;;;;;;;14.97;3.40;;;;;;;17.40;51.94;93716.00;4992186;28;20185;-43
2023/12/03 00:25:21;;;;;;;16.60;4.07;;;;;;;17.43;52.13;93712.22;4991718;28;20197;-43
2023/12/03 00:27:48;;;;;;;20.50;3.30;;;;;;;17.43;52.29;93719.97;4991687;28;20189;-43
2023/12/03 00:30:15;;;;;;;18.03;4.20;;;;;;;17.46;52.35;93719.56;4991202;28;20196;-43
2023/12/03 00:32:42;;;;;;;8.33;2.70;;;;;;;17.34;52.60;93723.78;4991881;28;20196;-43
2023/12/03 00:35:11;;;;;;;22.33;3.60;;;;;;;17.08;52.72;93678.91;4991255;28;20197;-43
2023/12/03 00:37:38;;;;;;;16.93;3.00;;;;;;;17.33;53.07;93724.78;4990060;28;20284;-43
2023/12/03 00:40:06;;;;;;;12.17;3.40;;;;;;;17.35;52.94;93715.00;4991174;28;20217;-43
2023/12/03 00:42:33;;;;;;;13.27;3.80;;;;;;;17.33;52.82;93717.81;4991151;28;20189;-43
2023/12/03 00:44:59;;;;;;;16.10;3.43;;;;;;;17.34;52.95;93721.97;4991410;28;20648;-42
2023/12/03 00:47:26;;;;;;;21.47;3.33;;;;;;;17.29;53.04;93739.88;4991159;28;20193;-42
2023/12/03 00:49:53;;;;;;;18.83;2.80;;;;;;;17.30;53.25;93736.28;4991182;28;20278;-43
2023/12/03 00:52:21;;;;;;;15.07;4.00;;;;;;;17.19;53.19;93729.19;4990262;28;20205;-44
2023/12/03 00:54:48;;;;;;;12.83;3.50;;;;;;;17.34;52.87;93747.81;4990657;28;20199;-44
2023/12/03 00:57:15;;;;;;;11.80;3.27;;;;;;;17.36;52.93;93738.09;4991127;28;20193;-43
2023/12/03 00:59:43;;;;;;;18.73;3.37;;;;;;;17.32;53.19;93746.44;4991378;28;20236;-44
2023/12/03 01:02:09;;;;;;;15.47;4.00;;;;;;;17.31;53.17;93748.22;4990735;28;20300;-43
2023/12/03 01:04:36;;;;;;;18.23;4.40;;;;;;;17.36;53.42;93761.34;4991123;28;20185;-43
2023/12/03 01:07:03;;;;;;;13.10;3.23;;;;;;;17.37;53.50;93750.00;4990235;28;20240;-42
2023/12/03 01:09:31;;;;;;;12.63;3.13;;;;;;;17.38;53.58;93758.56;4990612;28;20189;-43
2023/12/03 01:11:58;;;;;;;20.53;4.10;;;;;;;17.38;53.45;93755.97;4990550;28;20185;-42
2023/12/03 01:14:25;;;;;;;15.97;3.53;;;;;;;17.33;53.97;93760.94;4990597;28;20205;-43
2023/12/03 01:16:51;;;;;;;14.53;3.17;;;;;;;17.37;53.00;93755.19;4990723;28;20202;-43
2023/12/03 01:19:18;;;;;;;17.00;3.77;;;;;;;17.41;53.26;93771.06;4989776;28;20212;-43
2023/12/03 01:21:45;;;;;;;15.07;3.90;;;;;;;17.43;53.15;93766.47;4990520;28;20201;-43
2023/12/03 01:24:11;;;;;;;13.10;3.80;;;;;;;17.27;53.89;93747.84;4989757;28;20623;-43
2023/12/03 01:26:40;;;;;;;13.57;3.40;;;;;;;17.48;53.40;93777.00;4990581;28;20188;-42
2023/12/03 01:29:06;;;;;;;14.67;3.50;;;;;;;17.50;53.07;93777.63;4990502;28;20527;-44
2023/12/03 01:31:33;;;;;;;18.13;3.40;;;;;;;17.52;53.32;93791.91;4990541;28;20189;-44
2023/12/03 01:34:00;;;;;;;13.97;3.30;;;;;;;17.52;53.77;93778.19;4990113;28;20647;-42
2023/12/03 01:36:27;;;;;;;18.67;3.70;;;;;;;17.45;53.35;93756.75;4990165;28;20851;-43
2023/12/03 01:38:53;;;;;;;8.40;3.27;;;;;;;17.55;52.98;93772.63;4989865;28;20668;-44
2023/12/03 01:41:20;;;;;;;17.57;4.43;;;;;;;17.50;53.65;93773.25;4990367;28;20335;-43
2023/12/03 01:43:50;;;;;;;9.87;3.70;;;;;;;17.47;54.08;93768.47;4990664;28;20190;-43
2023/12/03 01:46:16;;;;;;;10.93;2.90;;;;;;;17.48;54.46;93766.66;4990054;28;20284;-43
2023/12/03 01:48:44;;;;;;;17.07;3.60;;;;;;;17.54;54.54;93773.63;4989974;28;20189;-42
2023/12/03 01:51:11;;;;;;;9.97;2.87;;;;;;;17.50;55.08;93769.84;4989774;28;20202;-45
2023/12/03 01:53:39;;;;;;;18.57;3.50;;;;;;;17.47;54.86;93757.34;4989720;28;20723;-43
2023/12/03 01:56:07;;;;;;;28.70;3.90;;;;;;;17.42;54.80;93757.94;4989550;28;20197;-43
2023/12/03 01:58:34;;;;;;;17.97;3.23;;;;;;;17.41;54.63;93774.44;4990450;28;20189;-43
2023/12/03 02:01:02;;;;;;;16.70;3.20;;;;;;;17.36;55.04;93766.50;4989950;28;20229;-42
2023/12/03 02:03:30;;;;;;;22.80;3.67;;;;;;;17.36;55.15;93757.94;4990302;28;20193;-44
2023/12/03 02:06:04;;;;;;;14.87;3.53;;;;;;;17.37;54.67;93747.41;4989358;28;20193;-44
2023/12/03 02:08:31;;;;;;;13.97;3.03;;;;;;;17.28;54.96;93775.28;4989439;28;20307;-43
2023/12/03 02:10:58;;;;;;;12.30;3.33;;;;;;;17.29;55.02;93778.66;4981715;28;20576;-43
2023/12/03 02:13:28;;;;;;;13.13;3.83;;;;;;;17.32;55.55;93762.75;4990227;28;20299;-43
2023/12/03 02:15:54;;;;;;;22.50;3.90;;;;;;;17.33;55.54;93753.19;4989618;28;20310;-43
2023/12/03 02:18:23;;;;;;;18.57;3.87;;;;;;;17.02;55.38;93711.50;4990179;28;20189;-43
2023/12/03 02:20:50;;;;;;;16.90;3.23;;;;;;;17.33;55.11;93748.03;4988723;28;20224;-43
2023/12/03 02:23:18;;;;;;;15.77;3.50;;;;;;;17.35;55.40;93746.03;4989835;28;20228;-42
2023/12/03 02:25:45;;;;;;;19.03;4.13;;;;;;;17.29;55.25;93757.97;4989151;28;20263;-43
2023/12/03 02:28:12;;;;;;;9.40;3.33;;;;;;;17.23;55.14;93748.44;4989525;28;20664;-42
2023/12/03 02:30:38;;;;;;;13.43;3.47;;;;;;;17.25;54.58;93754.19;4989740;28;20321;-43
2023/12/03 02:33:05;;;;;;;10.90;3.30;;;;;;;17.30;54.57;93757.75;4989567;28;20196;-44
2023/12/03 02:35:32;;;;;;;14.60;3.33;;;;;;;17.32;55.52;93756.78;4989083;28;20573;-42
2023/12/03 02:37:59;;;;;;;10.93;3.27;;;;;;;17.25;55.94;93743.88;4972156;28;20196;-43
2023/12/03 02:40:27;;;;;;;14.00;3.23;;;;;;;17.36;56.29;93763.09;4989243;28;20688;-43
2023/12/03 02:42:54;;;;;;;13.60;3.30;;;;;;;17.33;56.73;93760.94;4989203;28;20239;-43
2023/12/03 02:45:20;;;;;;;14.77;3.13;;;;;;;17.23;56.96;93741.50;4989838;28;20229;-43
2023/12/03 02:47:47;;;;;;;13.90;3.43;;;;;;;17.16;57.46;93760.56;4988629;28;20267;-44
2023/12/03 02:50:14;;;;;;;10.60;3.40;;;;;;;17.12;57.38;93765.34;4989180;28;20189;-43
2023/12/03 02:52:41;;;;;;;10.73;3.67;;;;;;;17.07;57.09;93759.19;4988889;28;20212;-45
2023/12/03 02:55:09;;;;;;;17.17;3.57;;;;;;;17.10;56.80;93754.44;4989579;28;20277;-44
2023/12/03 02:57:37;;;;;;;12.13;3.27;;;;;;;17.13;56.49;93764.34;4989251;28;20248;-42
2023/12/03 03:00:06;;;;;;;12.50;3.53;;;;;;;17.03;57.02;93766.53;4989372;28;20224;-42
2023/12/03 03:02:33;;;;;;;15.63;3.20;;;;;;;17.02;57.03;93770.91;4992587;28;20283;-42
2023/12/03 03:05:00;;;;;;;11.83;2.80;;;;;;;17.03;56.88;93762.16;4993287;28;20212;-43
2023/12/03 03:07:28;;;;;;;17.77;3.60;;;;;;;17.02;56.59;93768.34;4992860;28;20228;-44
2023/12/03 03:09:54;;;;;;;11.70;3.27;;;;;;;17.08;56.52;93756.41;4992234;28;20657;-45
2023/12/03 03:12:21;;;;;;;11.83;3.27;;;;;;;17.06;56.41;93771.31;4992539;28;20545;-43
2023/12/03 03:14:49;;;;;;;17.03;3.97;;;;;;;17.10;56.14;93785.44;4986938;28;21018;-43
2023/12/03 03:17:16;;;;;;;15.67;4.73;;;;;;;17.15;56.25;93770.13;4971282;28;20190;-45
2023/12/03 03:19:43;;;;;;;13.47;3.37;;;;;;;17.07;56.21;93779.88;4971204;28;20218;-44
2023/12/03 03:22:12;;;;;;;24.73;3.87;;;;;;;17.08;56.76;93778.84;4970917;28;20288;-44
2023/12/03 03:24:39;;;;;;;18.23;4.17;;;;;;;17.10;57.27;93784.59;4976281;28;20193;-42
2023/12/03 03:27:06;;;;;;;13.53;3.20;;;;;;;17.14;57.15;93778.06;4990157;28;20220;-42
2023/12/03 03:29:33;;;;;;;10.90;3.47;;;;;;;17.11;57.22;93783.63;4990313;28;20621;-43
2023/12/03 03:32:01;;;;;;;19.23;3.77;;;;;;;17.11;57.71;93796.56;4990854;28;20555;-44
2023/12/03 03:34:28;;;;;;;17.03;4.53;;;;;;;17.07;57.88;93797.94;4990422;28;20197;-44
2023/12/03 03:36:55;;;;;;;13.07;3.83;;;;;;;17.03;58.27;93798.34;4990337;28;20208;-42
2023/12/03 03:39:22;;;;;;;21.07;3.57;;;;;;;16.96;58.46;93797.53;4989294;28;20185;-42
2023/12/03 03:41:48;;;;;;;13.47;4.20;;;;;;;16.96;58.93;93818.19;4989945;28;20185;-43
2023/12/03 03:44:15;;;;;;;14.33;3.20;;;;;;;16.95;59.35;93826.94;4990220;28;20255;-43
2023/12/03 03:46:42;;;;;;;23.77;3.57;;;;;;;16.86;59.45;93822.97;4989975;28;20656;-43
2023/12/03 03:49:10;;;;;;;20.53;3.70;;;;;;;16.82;59.44;93826.94;4990081;28;20196;-43
2023/12/03 03:51:37;;;;;;;20.67;3.77;;;;;;;16.71;59.99;93822.31;4989276;28;20284;-42
2023/12/03 03:54:04;;;;;;;11.80;3.73;;;;;;;16.75;60.11;93831.28;4989795;28;20197;-42
2023/12/03 03:56:31;;;;;;;25.37;4.33;;;;;;;16.72;59.30;93829.91;4989826;28;20333;-45
2023/12/03 03:58:57;;;;;;;13.33;3.50;;;;;;;16.73;59.23;93849.56;4989757;28;20204;-41
2023/12/03 04:01:24;;;;;;;26.57;4.00;;;;;;;16.71;59.83;93841.19;4989631;28;20216;-43
2023/12/03 04:03:51;;;;;;;13.20;3.57;;;;;;;16.66;60.33;93850.50;4989588;28;20623;-43
2023/12/03 04:06:19;;;;;;;16.30;3.67;;;;;;;16.64;60.35;93855.06;4989543;28;20193;-43
2023/12/03 04:08:46;;;;;;;17.83;4.27;;;;;;;16.69;60.99;93857.88;4988937;28;20607;-43
2023/12/03 04:11:13;;;;;;;16.10;3.57;;;;;;;16.60;61.28;93865.00;4989534;28;20696;-42
2023/12/03 04:13:39;;;;;;;11.30;3.70;;;;;;;16.43;62.04;93864.53;4988555;28;20312;-43
2023/12/03 04:16:07;;;;;;;14.20;3.63;;;;;;;16.24;62.56;93873.03;4989631;28;20213;-44
2023/12/03 04:18:35;;;;;;;11.43;3.70;;;;;;;16.05;63.34;93880.47;4989649;28;20193;-43
2023/12/03 04:21:01;;;;;;;15.57;3.67;;;;;;;15.94;63.76;93882.81;4989539;28;20591;-44
2023/12/03 04:23:29;;;;;;;26.93;4.10;;;;;;;15.83;64.26;93878.16;4989089;28;20209;-44
2023/12/03 04:25:56;;;;;;;18.67;3.97;;;;;;;15.73;64.40;93881.09;4989489;28;20912;-44
2023/12/03 04:28:23;;;;;;;16.23;3.93;;;;;;;15.63;64.85;93891.72;4989086;28;20196;-42
2023/12/03 04:30:50;;;;;;;17.40;3.60;;;;;;;15.57;64.72;93888.09;4988979;28;20189;-43
2023/12/03 04:33:16;;;;;;;13.23;3.50;;;;;;;15.60;64.95;93899.00;4989092;28;20220;-44
2023/12/03 04:35:43;;;;;;;17.40;4.00;;;;;;;15.55;64.63;93902.94;4989534;28;20843;-45
2023/12/03 04:38:10;;;;;;;12.43;3.27;;;;;;;15.57;64.85;93906.13;4988289;28;20647;-42
2023/12/03 04:40:38;;;;;;;17.00;4.23;;;;;;;15.54;65.10;93916.81;4989016;28;20239;-47
2023/12/03 04:43:05;;;;;;;20.50;3.70;;;;;;;15.44;66.20;93906.03;4988832;28;20616;-43
2023/12/03 04:45:31;;;;;;;11.83;3.93;;;;;;;15.60;67.29;93930.72;4988913;28;20231;-44
2023/12/03 04:47:58;;;;;;;11.43;3.47;;;;;;;15.56;67.99;93934.66;4989197;28;20575;-42
2023/12/03 04:50:25;;;;;;;15.80;3.73;;;;;;;15.55;68.43;93949.34;4988567;28;20205;-43
2023/12/03 04:52:52;;;;;;;12.63;3.87;;;;;;;15.47;67.02;93953.81;4988907;28;20592;-42
2023/12/03 04:55:19;;;;;;;11.53;3.73;;;;;;;15.32;68.01;93964.97;4988458;28;20192;-42
2023/12/03 04:57:47;;;;;;;8.40;3.50;;;;;;;15.19;67.90;93975.16;4988413;28;20193;-42
2023/12/03 05:00:14;;;;;;;11.87;3.00;;;;;;;15.11;68.10;93989.94;4988176;28;20235;-44
2023/12/03 05:02:41;;;;;;;8.40;3.37;;;;;;;15.00;68.42;93989.44;4988488;28;20251;-44
2023/12/03 05:05:08;;;;;;;13.67;3.90;;;;;;;14.89;68.46;93987.31;4986081;28;20584;-44
2023/12/03 05:07:35;;;;;;;13.60;3.40;;;;;;;14.65;69.70;93967.06;4971247;28;20292;-44
2023/12/03 05:10:02;;;;;;;7.27;2.90;;;;;;;14.70;71.59;93996.41;4971286;28;20244;-43
2023/12/03 05:12:29;;;;;;;13.27;3.10;;;;;;;14.61;73.31;94007.00;4971756;28;20189;-44
2023/12/03 05:14:57;;;;;;;20.03;3.03;;;;;;;14.47;74.61;94009.38;4971432;28;20182;-43
2023/12/03 05:17:23;;;;;;;12.20;3.17;;;;;;;14.40;75.69;94010.25;4971533;28;20197;-42
2023/12/03 05:19:50;;;;;;;9.13;3.17;;;;;;;14.33;76.80;94012.72;4971716;28;20190;-43
2023/12/03 05:22:17;;;;;;;19.77;3.53;;;;;;;14.06;77.73;93981.50;4990723;28;20204;-43
2023/12/03 05:24:44;;;;;;;8.13;3.03;;;;;;;14.18;78.65;94001.66;4990363;28;20271;-43
2023/12/03 05:27:11;;;;;;;10.93;3.53;;;;;;;14.13;78.99;93999.63;4990831;28;20193;-42
2023/12/03 05:29:42;;;;;;;11.53;2.90;;;;;;;14.07;79.09;93992.59;4990900;28;20651;-43
2023/12/03 05:32:10;;;;;;;9.67;3.03;;;;;;;14.07;79.67;94008.00;4989773;28;20224;-44
2023/12/03 05:34:37;;;;;;;10.77;3.07;;;;;;;14.03;79.84;94002.44;4989995;28;20207;-44
2023/12/03 05:37:04;;;;;;;8.43;3.40;;;;;;;13.99;80.37;94008.13;4989673;28;20204;-43
2023/12/03 05:39:31;;;;;;;12.63;3.63;;;;;;;13.95;80.80;94014.59;4990159;28;20644;-43
2023/12/03 05:41:58;;;;;;;11.40;3.50;;;;;;;14.00;81.09;94013.06;4990139;28;20290;-44
2023/12/03 05:44:25;;;;;;;12.70;3.80;;;;;;;13.99;80.89;94010.69;4990452;28;20235;-42
2023/12/03 05:46:52;;;;;;;10.53;3.53;;;;;;;13.96;80.63;94016.16;4990131;28;20181;-42
2023/12/03 05:49:20;;;;;;;14.03;3.70;;;;;;;13.93;80.36;94025.03;4989918;28;20193;-43
2023/12/03 05:51:47;;;;;;;7.13;2.97;;;;;;;13.94;80.43;94018.09;4989891;28;20185;-45
2023/12/03 05:54:13;;;;;;;9.83;3.77;;;;;;;13.88;80.17;94029.88;4990634;28;20639;-44
2023/12/03 05:56:40;;;;;;;16.47;4.33;;;;;;;13.85;80.59;94034.56;4990067;28;20193;-44
2023/12/03 05:59:07;;;;;;;16.77;4.33;;;;;;;13.80;80.82;94033.31;4990303;28;20193;-42
2023/12/03 06:01:34;;;;;;;11.03;4.20;;;;;;;13.84;81.02;94040.69;4989510;28;20324;-43
2023/12/03 06:04:06;;;;;;;16.93;4.43;;;;;;;13.81;81.33;94050.31;4990005;28;20231;-43
2023/12/03 06:06:34;;;;;;;13.70;3.90;;;;;;;13.78;81.41;94055.03;4989924;28;20196;-43
2023/12/03 06:09:01;;;;;;;15.70;4.07;;;;;;;13.77;81.24;94069.66;4989294;28;20298;-43
2023/12/03 06:11:29;;;;;;;16.23;4.27;;;;;;;13.60;81.10;94036.53;4990306;28;20196;-44
2023/12/03 06:13:56;;;;;;;17.33;4.37;;;;;;;13.59;81.00;94045.22;4990077;28;20189;-43
2023/12/03 06:16:23;;;;;;;11.07;4.00;;;;;;;13.79;80.77;94075.41;4990032;28;20317;-43
2023/12/03 06:18:50;;;;;;;12.13;4.07;;;;;;;13.82;80.31;94076.84;4989607;28;20222;-43
2023/12/03 06:21:17;;;;;;;11.67;4.07;;;;;;;13.83;80.33;94083.59;4990000;28;20704;-43
2023/12/03 06:23:45;;;;;;;11.13;4.17;;;;;;;13.86;80.37;94087.56;4989774;28;20189;-44
2023/12/03 06:26:12;;;;;;;10.63;4.27;;;;;;;13.85;80.69;94078.25;4989782;28;20188;-44
2023/12/03 06:28:38;;;;;;;12.97;4.57;;;;;;;13.92;80.53;94090.25;4989812;28;20770;-44
2023/12/03 06:31:06;;;;;;;11.87;4.00;;;;;;;13.97;80.80;94097.44;4989450;28;20192;-43
2023/12/03 06:33:33;;;;;;;11.43;4.40;;;;;;;13.98;81.76;94099.03;4989269;28;20196;-44
2023/12/03 06:35:59;;;;;;;12.03;4.33;;;;;;;14.01;82.53;94099.50;4990651;28;20193;-43
2023/12/03 06:38:26;;;;;;;13.90;3.97;;;;;;;14.03;82.66;94105.28;4993648;28;20196;-44
2023/12/03 06:40:54;;;;;;;10.37;3.93;;;;;;;14.01;82.80;94104.63;4993813;28;20227;-43
2023/12/03 06:43:21;;;;;;;11.50;4.00;;;;;;;13.88;82.98;94083.88;4993995;28;20561;-43
2023/12/03 06:45:48;;;;;;;17.17;4.20;;;;;;;14.06;83.07;94119.53;4993158;28;20704;-45
2023/12/03 06:48:15;;;;;;;8.77;3.93;;;;;;;13.81;83.23;94086.31;4993969;28;20192;-43
2023/12/03 06:50:41;;;;;;;17.23;4.57;;;;;;;14.09;83.57;94133.84;4974103;28;20197;-44
2023/12/03 06:53:08;;;;;;;14.50;3.93;;;;;;;14.06;84.85;94134.97;4974249;28;20197;-43
2023/12/03 06:55:35;;;;;;;14.47;4.10;;;;;;;14.05;85.95;94133.38;4974279;28;20565;-46
2023/12/03 06:58:03;;;;;;;8.47;3.77;;;;;;;14.01;87.73;94126.97;4974315;28;20704;-43
2023/12/03 07:00:30;;;;;;;13.67;4.20;;;;;;;13.97;88.37;94131.66;4973721;28;20621;-42
2023/12/03 07:02:58;;;;;;;15.83;4.40;;;;;;;13.40;89.56;94043.91;4974232;28;20189;-45
2023/12/03 07:05:25;;;;;;;15.90;4.10;;;;;;;13.89;90.27;94128.34;4993715;28;20230;-45
2023/12/03 07:07:52;;;;;;;7.60;4.00;;;;;;;13.89;91.52;94146.34;4991273;28;20917;-42
2023/12/03 07:10:19;;;;;;;14.50;4.30;;;;;;;13.78;92.53;94150.13;4990492;28;20243;-43
2023/12/03 07:12:46;;;;;;;14.97;4.57;;;;;;;13.76;92.42;94165.69;4993140;28;20208;-44
2023/12/03 07:15:14;;;;;;;11.77;4.80;;;;;;;13.63;94.33;94156.94;4987948;28;20193;-43
2023/12/03 07:17:41;;;;;;;10.97;4.37;;;;;;;13.60;95.23;94155.53;4990135;28;20549;-45
2023/12/03 07:20:09;;;;;;;13.97;5.37;;;;;;;13.58;96.52;94161.78;4990965;28;20197;-44
2023/12/03 07:22:36;;;;;;;10.00;5.37;;;;;;;13.55;97.17;94163.72;4990447;28;20220;-43
2023/12/03 07:25:03;;;;;;;14.33;5.60;;;;;;;13.52;98.33;94166.66;4990688;28;20204;-45
2023/12/03 07:27:30;;;;;;;19.00;6.20;;;;;;;13.49;99.18;94166.97;4987564;28;20224;-46
2023/12/03 07:29:58;;;;;;;12.53;5.13;;;;;;;13.45;99.63;94173.41;4990164;28;20570;-42
2023/12/03 07:32:26;;;;;;;15.10;5.57;;;;;;;13.41;100.00;94176.50;4989941;28;20197;-43
2023/12/03 07:34:53;;;;;;;19.90;5.33;;;;;;;13.45;100.00;94185.47;4990649;28;20552;-44
2023/12/03 07:37:20;;;;;;;11.83;4.87;;;;;;;13.39;100.00;94181.81;4989827;28;20204;-43
2023/12/03 07:39:47;;;;;;;12.43;4.90;;;;;;;13.42;100.00;94194.28;4990348;28;20310;-45
2023/12/03 07:42:14;;;;;;;14.27;5.60;;;;;;;13.43;100.00;94190.78;4990293;28;20228;-44
2023/12/03 07:44:40;;;;;;;16.50;6.03;;;;;;;13.49;100.00;94195.22;4988866;28;20211;-44
2023/12/03 07:47:08;;;;;;;14.40;6.83;;;;;;;13.38;100.00;94192.22;4989552;28;20208;-44
2023/12/03 07:49:36;;;;;;;15.13;5.63;;;;;;;13.42;100.00;94219.97;4989383;28;20184;-42
2023/12/03 07:52:03;;;;;;;12.90;5.53;;;;;;;13.43;100.00;94215.66;4990135;28;20753;-43
2023/12/03 07:54:30;;;;;;;10.77;4.70;;;;;;;13.37;99.31;94222.25;4990301;28;20205;-44
2023/12/03 07:56:56;;;;;;;11.97;4.63;;;;;;;13.27;99.08;94229.34;4990184;28;20193;-42
2023/12/03 07:59:23;;;;;;;13.63;4.50;;;;;;;13.28;98.59;94239.44;4989420;28;20205;-42
2023/12/03 08:01:50;;;;;;;13.03;4.87;;;;;;;13.26;98.85;94249.09;4989652;28;20324;-41
2023/12/03 08:04:17;;;;;;;9.07;4.17;;;;;;;13.20;98.33;94244.56;4970585;28;20205;-43
2023/12/03 08:06:45;;;;;;;9.93;4.50;;;;;;;13.09;97.90;94270.59;4988904;28;20936;-43
2023/12/03 08:09:12;;;;;;;5.93;4.23;;;;;;;12.96;96.10;94276.25;4987940;28;20197;-43
2023/12/03 08:11:39;;;;;;;8.50;4.20;;;;;;;12.75;96.02;94276.72;4989685;28;20268;-42
2023/12/03 08:14:06;;;;;;;7.50;5.20;;;;;;;12.67;96.01;94293.91;4989294;28;20223;-41
2023/12/03 08:16:32;;;;;;;11.00;5.63;;;;;;;12.46;95.84;94284.91;4989735;28;20279;-43
2023/12/03 08:18:59;;;;;;;11.87;5.63;;;;;;;12.34;96.21;94295.63;4981638;28;20205;-44
2023/12/03 08:21:26;;;;;;;11.00;5.60;;;;;;;12.25;97.03;94295.59;4989837;28;20252;-42
2023/12/03 08:23:54;;;;;;;7.53;5.30;;;;;;;12.24;97.21;94304.25;4989389;28;20224;-44
2023/12/03 08:26:21;;;;;;;11.40;5.83;;;;;;;12.14;97.28;94313.06;4989504;28;20189;-44
2023/12/03 08:28:48;;;;;;;8.90;5.27;;;;;;;12.07;97.40;94302.63;4988915;28;20189;-45
2023/12/03 08:31:14;;;;;;;12.07;5.83;;;;;;;12.02;98.26;94317.66;4989052;28;20755;-43
2023/12/03 08:33:41;;;;;;;7.03;5.63;;;;;;;11.88;97.17;94313.94;4989309;28;20209;-43
2023/12/03 08:36:09;;;;;;;11.40;5.77;;;;;;;11.79;96.02;94307.16;4989445;28;20270;-43
2023/12/03 08:38:36;;;;;;;8.47;5.37;;;;;;;11.59;95.49;94303.22;4988672;28;20224;-44
2023/12/03 08:41:04;;;;;;;6.40;5.43;;;;;;;11.46;96.29;94306.19;4988864;28;20196;-44
2023/12/03 08:43:32;;;;;;;7.97;6.70;;;;;;;11.38;95.59;94321.50;4989133;28;20272;-44
2023/12/03 08:45:58;;;;;;;13.23;11.27;;;;;;;11.25;95.97;94320.16;4988921;28;20189;-43
2023/12/03 08:48:25;;;;;;;18.57;13.03;;;;;;;11.18;94.94;94331.13;4988525;28;20653;-42
2023/12/03 08:50:52;;;;;;;14.47;12.63;;;;;;;11.03;95.82;94325.78;4988405;28;20193;-42
2023/12/03 08:53:19;;;;;;;10.93;9.10;;;;;;;11.00;95.21;94326.88;4988165;28;20208;-42
2023/12/03 08:55:45;;;;;;;10.80;7.23;;;;;;;10.88;95.39;94327.25;4988761;28;20186;-41
2023/12/03 08:58:13;;;;;;;10.00;6.57;;;;;;;10.79;94.75;94324.66;4988240;28;20193;-44
2023/12/03 09:00:40;;;;;;;7.93;6.70;;;;;;;10.66;94.26;94329.31;4988447;28;20196;-43
2023/12/03 09:03:07;;;;;;;11.13;5.43;;;;;;;10.50;94.95;94324.88;4988254;28;20271;-42
2023/12/03 09:05:34;;;;;;;9.37;6.67;;;;;;;10.42;94.68;94337.59;4988680;28;20652;-42
2023/12/03 09:08:00;;;;;;;8.77;6.50;;;;;;;10.32;95.33;94325.81;4988580;28;20524;-43
2023/12/03 09:10:27;;;;;;;12.07;6.60;;;;;;;10.26;95.47;94330.56;4988665;28;20251;-44
2023/12/03 09:12:54;;;;;;;8.70;6.30;;;;;;;10.23;95.15;94335.13;4988638;28;20223;-45
2023/12/03 09:15:22;;;;;;;7.93;7.03;;;;;;;10.13;95.94;94342.84;4989094;28;20251;-46
2023/12/03 09:17:49;;;;;;;7.87;6.80;;;;;;;10.05;95.87;94350.41;4987892;28;20189;-43
2023/12/03 09:20:15;;;;;;;8.03;6.43;;;;;;;9.98;96.09;94365.53;4988905;28;20197;-44
2023/12/03 09:22:42;;;;;;;11.20;7.17;;;;;;;9.85;96.84;94364.25;4988326;28;20221;-44
2023/12/03 09:25:09;;;;;;;10.97;7.13;;;;;;;9.83;97.21;94371.22;4988121;28;20691;-41
2023/12/03 09:27:36;;;;;;;7.73;6.73;;;;;;;9.85;96.83;94377.81;4987397;28;20408;-45
2023/12/03 09:30:04;;;;;;;11.00;7.07;;;;;;;9.76;97.30;94374.38;4983102;28;20206;-44
2023/12/03 09:32:33;;;;;;;9.97;7.67;;;;;;;9.60;98.18;94376.69;4988071;28;20243;-44
2023/12/03 09:35:00;;;;;;;10.07;7.93;;;;;;;9.71;98.35;94388.47;4985139;28;20239;-44
2023/12/03 09:37:26;;;;;;;9.97;7.83;;;;;;;9.69;98.06;94370.75;4988517;28;20189;-44
2023/12/03 09:39:53;;;;;;;8.40;6.70;;;;;;;9.69;97.81;94383.50;4987304;28;20263;-43
2023/12/03 09:42:26;;;;;;;8.90;7.80;;;;;;;9.65;97.54;94387.28;4987610;28;20221;-43
2023/12/03 09:45:01;;;;;;;11.63;7.10;;;;;;;9.70;96.92;94361.34;4988145;28;21012;-43
2023/12/03 09:47:28;;;;;;;9.90;7.67;;;;;;;9.62;96.53;94379.91;4987644;28;20308;-42
2023/12/03 09:49:56;;;;;;;8.17;7.27;;;;;;;9.57;97.44;94391.47;4988092;28;20283;-43
2023/12/03 09:52:27;;;;;;;15.50;8.90;;;;;;;9.52;97.31;94392.69;4986950;28;20256;-43
2023/12/03 09:54:57;;;;;;;10.90;7.90;;;;;;;9.21;98.40;94358.94;4987753;28;20668;-45
2023/12/03 09:57:26;;;;;;;10.23;8.27;;;;;;;9.43;98.78;94401.19;4987326;28;20927;-43
2023/12/03 09:59:57;;;;;;;13.67;8.77;;;;;;;9.37;98.65;94403.47;4987650;28;20657;-44
2023/12/03 10:02:28;;;;;;;12.67;7.53;;;;;;;9.21;96.58;94378.53;4987226;28;20201;-44
2023/12/03 10:04:57;;;;;;;10.63;7.10;;;;;;;9.24;96.38;94414.81;4980551;28;20589;-42
2023/12/03 10:07:27;;;;;;;12.43;7.40;;;;;;;9.17;95.73;94425.69;4987726;28;20283;-42
2023/12/03 10:09:57;;;;;;;9.60;6.57;;;;;;;9.03;94.49;94417.50;4986805;28;20203;-42
2023/12/03 10:12:26;;;;;;;11.80;7.60;;;;;;;8.88;94.23;94434.13;4987819;28;20633;-43
2023/12/03 10:14:53;;;;;;;9.80;6.77;;;;;;;8.80;94.36;94431.44;4986933;28;20284;-43
2023/12/03 10:17:20;;;;;;;10.23;7.53;;;;;;;8.31;95.23;94377.03;4987931;28;20236;-44
2023/12/03 10:19:47;;;;;;;10.23;7.37;;;;;;;8.57;95.76;94440.28;4987077;28;20201;-43
2023/12/03 10:22:16;;;;;;;9.57;7.50;;;;;;;8.49;95.72;94438.38;4987114;28;20255;-43
2023/12/03 10:24:47;;;;;;;9.27;6.80;;;;;;;8.21;96.01;94415.22;4987682;28;20197;-42
2023/12/03 10:27:14;;;;;;;13.83;7.93;;;;;;;8.41;96.17;94441.56;4987240;28;20287;-42
2023/12/03 10:29:41;;;;;;;13.53;8.63;;;;;;;8.51;96.49;94447.50;4987167;28;20247;-42
2023/12/03 10:32:09;;;;;;;11.37;8.70;;;;;;;8.79;97.80;94455.31;4987380;28;20630;-42
2023/12/03 10:34:36;;;;;;;17.03;7.30;;;;;;;9.11;96.95;94444.06;4986679;28;20185;-42
2023/12/03 10:37:03;;;;;;;11.50;7.97;;;;;;;9.36;95.63;94442.69;4987302;28;20201;-44
2023/12/03 10:39:32;;;;;;;20.57;8.13;;;;;;;9.52;94.70;94419.97;4986516;28;20192;-44
2023/12/03 10:42:00;;;;;;;13.00;7.73;;;;;;;9.76;93.98;94416.97;4987501;28;20216;-42
2023/12/03 10:44:28;;;;;;;12.13;7.13;;;;;;;10.13;92.72;94434.03;4987160;28;20639;-42
2023/12/03 10:46:56;;;;;;;8.87;6.73;;;;;;;10.36;91.64;94449.81;4986583;28;20719;-42
2023/12/03 10:49:24;;;;;;;13.00;7.30;;;;;;;10.54;98.99;94441.25;4986855;28;20204;-42
2023/12/03 10:51:55;;;;;;;13.17;6.63;;;;;;;11.09;97.65;94465.09;4981656;28;20268;-44
2023/12/03 10:54:22;;;;;;;11.70;6.73;;;;;;;11.31;96.19;94454.41;4984737;28;20197;-41
2023/12/03 10:56:55;;;;;;;10.13;6.33;;;;;;;11.56;93.07;94455.41;4987096;28;20753;-44
2023/12/03 10:59:26;;;;;;;10.77;6.77;;;;;;;11.70;91.57;94454.06;4986919;28;20212;-43
2023/12/03 11:01:55;;;;;;;10.50;6.40;;;;;;;11.67;89.15;94454.38;4987264;28;20197;-44
2023/12/03 11:04:34;;;;;;;7.37;6.00;;;;;;;11.63;86.83;94460.75;4986849;28;20212;-43
2023/12/03 11:07:04;;;;;;;10.13;6.53;;;;;;;11.48;84.72;94460.47;4986906;28;20193;-43
2023/12/03 11:09:31;;;;;;;8.80;6.67;;;;;;;11.49;83.71;94465.47;4986644;28;20197;-41
2023/12/03 11:12:00;;;;;;;10.63;6.33;;;;;;;11.61;83.40;94463.44;4987063;28;20228;-43
2023/12/03 11:14:27;;;;;;;8.30;6.27;;;;;;;11.62;81.99;94462.50;4986726;28;20185;-43
2023/12/03 11:17:03;;;;;;;10.53;7.23;;;;;;;11.96;95.19;94451.53;4986580;28;20193;-43
2023/12/03 11:19:32;;;;;;;12.50;6.53;;;;;;;12.76;100.00;94452.81;4978059;28;20224;-45
2023/12/03 11:22:11;;;;;;;20.80;6.57;;;;;;;13.57;98.88;94474.44;4989468;28;20189;-43
2023/12/03 11:24:50;;;;;;;14.83;6.47;;;;;;;14.08;95.97;94477.59;4992955;28;20197;-45
2023/12/03 11:27:24;;;;;;;16.87;7.23;;;;;;;14.69;98.69;94477.91;4992510;28;20196;-43